sensor_id;sensor_type;location;lat;lon;timestamp;temperature;humidity
9193;DHT22;4631;49.296;10.560;2023-06-22T00:01:12;19.60;99.90
9193;DHT22;4631;49.296;10.560;2023-06-22T00:03:38;19.60;99.90
9193;DHT22;4631;49.296;10.560;2023-06-22T00:06:05;19.60;99.90
9193;DHT22;4631;49.296;10.560;2023-06-22T00:08:32;19.60;99.90
9193;DHT22;4631;49.296;10.560;2023-06-22T00:10:58;19.60;99.90
9193;DHT22;4631;49.296;10.560;2023-06-22T00:13:25;19.50;99.90
9193;DHT22;4631;49.296;10.560;2023-06-22T00:15:53;19.50;99.90
9193;DHT22;4631;49.296;10.560;2023-06-22T00:18:19;19.50;99.90
9193;DHT22;4631;49.296;10.560;2023-06-22T00:20:46;19.50;99.90
9193;DHT22;4631;49.296;10.560;2023-06-22T00:23:15;19.30;99.90
9193;DHT22;4631;49.296;10.560;2023-06-22T00:25:42;19.20;99.90
9193;DHT22;4631;49.296;10.560;2023-06-22T00:28:09;19.10;99.90
9193;DHT22;4631;49.296;10.560;2023-06-22T00:30:36;19.00;99.90
9193;DHT22;4631;49.296;10.560;2023-06-22T00:33:04;19.00;99.90
9193;DHT22;4631;49.296;10.560;2023-06-22T00:35:33;18.90;99.90
9193;DHT22;4631;49.296;10.560;2023-06-22T00:38:00;18.90;99.90
9193;DHT22;4631;49.296;10.560;2023-06-22T00:40:27;18.90;99.90
9193;DHT22;4631;49.296;10.560;2023-06-22T00:42:54;18.90;99.90
9193;DHT22;4631;49.296;10.560;2023-06-22T00:45:21;18.90;99.90
9193;DHT22;4631;49.296;10.560;2023-06-22T00:47:49;18.80;99.90
9193;DHT22;4631;49.296;10.560;2023-06-22T00:50:18;18.80;99.90
9193;DHT22;4631;49.296;10.560;2023-06-22T00:52:46;18.80;99.90
9193;DHT22;4631;49.296;10.560;2023-06-22T00:55:13;18.70;99.90
9193;DHT22;4631;49.296;10.560;2023-06-22T00:57:43;18.60;99.90
9193;DHT22;4631;49.296;10.560;2023-06-22T01:00:10;18.60;99.90
9193;DHT22;4631;49.296;10.560;2023-06-22T01:02:42;18.60;99.90
9193;DHT22;4631;49.296;10.560;2023-06-22T01:05:10;18.60;99.90
9193;DHT22;4631;49.296;10.560;2023-06-22T01:07:42;18.60;99.90
9193;DHT22;4631;49.296;10.560;2023-06-22T01:10:11;18.50;99.90
9193;DHT22;4631;49.296;10.560;2023-06-22T01:12:42;18.60;99.90
9193;DHT22;4631;49.296;10.560;2023-06-22T01:15:11;18.60;99.90
9193;DHT22;4631;49.296;10.560;2023-06-22T01:17:40;18.70;99.90
9193;DHT22;4631;49.296;10.560;2023-06-22T01:20:08;18.70;99.90
9193;DHT22;4631;49.296;10.560;2023-06-22T01:22:39;18.70;99.90
9193;DHT22;4631;49.296;10.560;2023-06-22T01:25:10;18.70;99.90
9193;DHT22;4631;49.296;10.560;2023-06-22T01:27:39;18.70;99.90
9193;DHT22;4631;49.296;10.560;2023-06-22T01:30:09;18.70;99.90
9193;DHT22;4631;49.296;10.560;2023-06-22T01:32:37;18.70;99.90
9193;DHT22;4631;49.296;10.560;2023-06-22T01:35:05;18.70;99.90
9193;DHT22;4631;49.296;10.560;2023-06-22T01:37:32;18.60;99.90
9193;DHT22;4631;49.296;10.560;2023-06-22T01:39:59;18.60;99.90
9193;DHT22;4631;49.296;10.560;2023-06-22T01:42:27;18.50;99.90
9193;DHT22;4631;49.296;10.560;2023-06-22T01:44:54;18.50;99.90
9193;DHT22;4631;49.296;10.560;2023-06-22T01:47:22;18.50;99.90
9193;DHT22;4631;49.296;10.560;2023-06-22T01:49:49;18.40;99.90
9193;DHT22;4631;49.296;10.560;2023-06-22T01:52:17;18.50;99.90
9193;DHT22;4631;49.296;10.560;2023-06-22T01:54:43;18.40;99.90
9193;DHT22;4631;49.296;10.560;2023-06-22T01:57:10;18.40;99.90
9193;DHT22;4631;49.296;10.560;2023-06-22T01:59:38;18.40;99.90
9193;DHT22;4631;49.296;10.560;2023-06-22T02:02:07;18.40;99.90
9193;DHT22;4631;49.296;10.560;2023-06-22T02:04:37;18.30;99.90
9193;DHT22;4631;49.296;10.560;2023-06-22T02:07:09;18.20;99.90
9193;DHT22;4631;49.296;10.560;2023-06-22T02:09:36;18.20;99.90
9193;DHT22;4631;49.296;10.560;2023-06-22T02:12:04;18.20;99.90
9193;DHT22;4631;49.296;10.560;2023-06-22T02:14:31;18.10;99.90
9193;DHT22;4631;49.296;10.560;2023-06-22T02:16:58;18.10;99.90
9193;DHT22;4631;49.296;10.560;2023-06-22T02:19:24;18.10;99.90
9193;DHT22;4631;49.296;10.560;2023-06-22T02:21:53;18.10;99.90
9193;DHT22;4631;49.296;10.560;2023-06-22T02:24:19;18.10;99.90
9193;DHT22;4631;49.296;10.560;2023-06-22T02:26:49;17.90;99.90
9193;DHT22;4631;49.296;10.560;2023-06-22T02:29:15;17.80;99.90
9193;DHT22;4631;49.296;10.560;2023-06-22T02:31:43;17.60;99.90
9193;DHT22;4631;49.296;10.560;2023-06-22T02:34:09;17.50;99.90
9193;DHT22;4631;49.296;10.560;2023-06-22T02:36:36;17.50;99.90
9193;DHT22;4631;49.296;10.560;2023-06-22T02:39:04;17.50;99.90
9193;DHT22;4631;49.296;10.560;2023-06-22T02:41:30;17.50;99.90
9193;DHT22;4631;49.296;10.560;2023-06-22T02:43:57;17.50;99.90
9193;DHT22;4631;49.296;10.560;2023-06-22T02:46:24;17.50;99.90
9193;DHT22;4631;49.296;10.560;2023-06-22T02:48:50;17.50;99.90
9193;DHT22;4631;49.296;10.560;2023-06-22T02:51:17;17.50;99.90
9193;DHT22;4631;49.296;10.560;2023-06-22T02:53:43;17.50;99.90
9193;DHT22;4631;49.296;10.560;2023-06-22T02:56:12;17.60;99.90
9193;DHT22;4631;49.296;10.560;2023-06-22T02:58:39;17.50;99.90
9193;DHT22;4631;49.296;10.560;2023-06-22T03:01:05;17.50;99.90
9193;DHT22;4631;49.296;10.560;2023-06-22T03:03:32;17.50;99.90
9193;DHT22;4631;49.296;10.560;2023-06-22T03:05:59;17.60;99.90
9193;DHT22;4631;49.296;10.560;2023-06-22T03:08:27;17.60;99.90
9193;DHT22;4631;49.296;10.560;2023-06-22T03:10:54;17.60;99.90
9193;DHT22;4631;49.296;10.560;2023-06-22T03:13:22;17.60;99.90
9193;DHT22;4631;49.296;10.560;2023-06-22T03:15:49;17.60;99.90
9193;DHT22;4631;49.296;10.560;2023-06-22T03:18:16;17.70;99.90
9193;DHT22;4631;49.296;10.560;2023-06-22T03:20:42;17.70;99.90
9193;DHT22;4631;49.296;10.560;2023-06-22T03:23:09;17.70;99.90
9193;DHT22;4631;49.296;10.560;2023-06-22T03:25:35;17.70;99.90
9193;DHT22;4631;49.296;10.560;2023-06-22T03:28:02;17.70;99.90
9193;DHT22;4631;49.296;10.560;2023-06-22T03:30:30;17.70;99.90
9193;DHT22;4631;49.296;10.560;2023-06-22T03:32:56;17.80;99.90
9193;DHT22;4631;49.296;10.560;2023-06-22T03:35:23;17.80;99.90
9193;DHT22;4631;49.296;10.560;2023-06-22T03:37:50;17.80;99.90
9193;DHT22;4631;49.296;10.560;2023-06-22T03:40:16;17.90;99.90
9193;DHT22;4631;49.296;10.560;2023-06-22T03:42:43;17.90;99.90
9193;DHT22;4631;49.296;10.560;2023-06-22T03:45:10;17.90;99.90
9193;DHT22;4631;49.296;10.560;2023-06-22T03:47:38;17.90;99.90
9193;DHT22;4631;49.296;10.560;2023-06-22T03:50:05;18.00;99.90
9193;DHT22;4631;49.296;10.560;2023-06-22T03:52:32;18.00;99.90
9193;DHT22;4631;49.296;10.560;2023-06-22T03:54:58;18.10;99.90
9193;DHT22;4631;49.296;10.560;2023-06-22T03:57:25;18.20;99.90
9193;DHT22;4631;49.296;10.560;2023-06-22T03:59:51;18.20;99.90
9193;DHT22;4631;49.296;10.560;2023-06-22T04:02:18;18.20;99.90
9193;DHT22;4631;49.296;10.560;2023-06-22T04:04:46;18.20;99.90
9193;DHT22;4631;49.296;10.560;2023-06-22T04:07:13;18.30;99.90
9193;DHT22;4631;49.296;10.560;2023-06-22T04:09:39;18.30;99.90
9193;DHT22;4631;49.296;10.560;2023-06-22T04:12:06;18.30;99.90
9193;DHT22;4631;49.296;10.560;2023-06-22T04:14:33;18.30;99.90
9193;DHT22;4631;49.296;10.560;2023-06-22T04:17:00;18.30;99.90
9193;DHT22;4631;49.296;10.560;2023-06-22T04:19:26;18.30;99.90
9193;DHT22;4631;49.296;10.560;2023-06-22T04:21:54;18.40;99.90
9193;DHT22;4631;49.296;10.560;2023-06-22T04:24:21;18.40;99.90
9193;DHT22;4631;49.296;10.560;2023-06-22T04:26:47;18.50;99.90
9193;DHT22;4631;49.296;10.560;2023-06-22T04:29:14;18.50;99.90
9193;DHT22;4631;49.296;10.560;2023-06-22T04:31:41;18.50;99.90
9193;DHT22;4631;49.296;10.560;2023-06-22T04:34:07;18.50;99.90
9193;DHT22;4631;49.296;10.560;2023-06-22T04:36:35;18.50;99.90
9193;DHT22;4631;49.296;10.560;2023-06-22T04:39:06;18.50;99.90
9193;DHT22;4631;49.296;10.560;2023-06-22T04:42:01;18.70;99.90
9193;DHT22;4631;49.296;10.560;2023-06-22T04:44:38;18.70;99.90
9193;DHT22;4631;49.296;10.560;2023-06-22T04:47:08;18.70;99.90
9193;DHT22;4631;49.296;10.560;2023-06-22T04:49:34;18.80;99.90
9193;DHT22;4631;49.296;10.560;2023-06-22T04:52:04;18.90;99.90
9193;DHT22;4631;49.296;10.560;2023-06-22T04:54:47;18.90;99.90
9193;DHT22;4631;49.296;10.560;2023-06-22T04:57:15;19.00;99.90
9193;DHT22;4631;49.296;10.560;2023-06-22T04:59:44;19.00;99.90
9193;DHT22;4631;49.296;10.560;2023-06-22T05:02:11;19.00;99.90
9193;DHT22;4631;49.296;10.560;2023-06-22T05:04:37;19.10;99.90
9193;DHT22;4631;49.296;10.560;2023-06-22T05:07:04;19.10;99.90
9193;DHT22;4631;49.296;10.560;2023-06-22T05:09:33;19.20;99.90
9193;DHT22;4631;49.296;10.560;2023-06-22T05:12:01;19.30;99.90
9193;DHT22;4631;49.296;10.560;2023-06-22T05:14:28;19.40;99.90
9193;DHT22;4631;49.296;10.560;2023-06-22T05:19:51;19.50;99.90
9193;DHT22;4631;49.296;10.560;2023-06-22T05:22:18;19.70;99.90
9193;DHT22;4631;49.296;10.560;2023-06-22T05:24:45;19.80;99.90
9193;DHT22;4631;49.296;10.560;2023-06-22T05:27:13;19.90;99.90
9193;DHT22;4631;49.296;10.560;2023-06-22T05:29:40;20.00;99.90
9193;DHT22;4631;49.296;10.560;2023-06-22T05:32:07;20.20;99.90
9193;DHT22;4631;49.296;10.560;2023-06-22T05:34:40;20.30;99.90
9193;DHT22;4631;49.296;10.560;2023-06-22T05:37:07;20.40;99.90
9193;DHT22;4631;49.296;10.560;2023-06-22T05:39:34;20.50;99.90
9193;DHT22;4631;49.296;10.560;2023-06-22T05:42:03;20.60;99.90
9193;DHT22;4631;49.296;10.560;2023-06-22T05:44:31;20.70;99.90
9193;DHT22;4631;49.296;10.560;2023-06-22T05:46:58;20.80;99.90
9193;DHT22;4631;49.296;10.560;2023-06-22T05:49:29;20.90;99.90
9193;DHT22;4631;49.296;10.560;2023-06-22T05:51:58;21.00;99.90
9193;DHT22;4631;49.296;10.560;2023-06-22T05:54:24;21.10;99.90
9193;DHT22;4631;49.296;10.560;2023-06-22T05:56:51;21.10;99.90
9193;DHT22;4631;49.296;10.560;2023-06-22T05:59:19;21.20;99.90
9193;DHT22;4631;49.296;10.560;2023-06-22T06:01:47;21.20;99.90
9193;DHT22;4631;49.296;10.560;2023-06-22T06:04:15;21.30;99.90
9193;DHT22;4631;49.296;10.560;2023-06-22T06:06:42;21.30;99.90
9193;DHT22;4631;49.296;10.560;2023-06-22T06:09:09;21.40;99.90
9193;DHT22;4631;49.296;10.560;2023-06-22T06:11:36;21.50;99.90
9193;DHT22;4631;49.296;10.560;2023-06-22T06:14:03;21.60;99.90
9193;DHT22;4631;49.296;10.560;2023-06-22T06:16:29;21.70;99.90
9193;DHT22;4631;49.296;10.560;2023-06-22T06:18:57;21.80;99.90
9193;DHT22;4631;49.296;10.560;2023-06-22T06:21:24;21.90;99.90
9193;DHT22;4631;49.296;10.560;2023-06-22T06:23:51;21.90;99.90
9193;DHT22;4631;49.296;10.560;2023-06-22T06:26:18;22.00;99.90
9193;DHT22;4631;49.296;10.560;2023-06-22T06:31:28;22.10;99.90
9193;DHT22;4631;49.296;10.560;2023-06-22T06:33:55;22.20;99.90
9193;DHT22;4631;49.296;10.560;2023-06-22T06:36:23;22.20;99.90
9193;DHT22;4631;49.296;10.560;2023-06-22T06:38:50;22.30;99.90
9193;DHT22;4631;49.296;10.560;2023-06-22T06:41:17;22.30;99.90
9193;DHT22;4631;49.296;10.560;2023-06-22T06:43:43;22.40;99.90
9193;DHT22;4631;49.296;10.560;2023-06-22T06:46:10;22.40;99.90
9193;DHT22;4631;49.296;10.560;2023-06-22T06:48:37;22.50;99.90
9193;DHT22;4631;49.296;10.560;2023-06-22T06:51:05;22.60;99.90
9193;DHT22;4631;49.296;10.560;2023-06-22T06:53:35;22.60;99.90
9193;DHT22;4631;49.296;10.560;2023-06-22T06:56:02;22.70;99.90
9193;DHT22;4631;49.296;10.560;2023-06-22T06:58:30;22.80;99.90
9193;DHT22;4631;49.296;10.560;2023-06-22T07:00:57;22.80;99.90
9193;DHT22;4631;49.296;10.560;2023-06-22T07:03:23;22.80;99.90
9193;DHT22;4631;49.296;10.560;2023-06-22T07:05:50;22.80;99.90
9193;DHT22;4631;49.296;10.560;2023-06-22T07:08:17;22.90;99.90
9193;DHT22;4631;49.296;10.560;2023-06-22T07:10:45;22.90;99.90
9193;DHT22;4631;49.296;10.560;2023-06-22T07:13:11;23.00;99.90
9193;DHT22;4631;49.296;10.560;2023-06-22T07:15:38;23.00;99.90
9193;DHT22;4631;49.296;10.560;2023-06-22T07:18:05;23.10;99.90
9193;DHT22;4631;49.296;10.560;2023-06-22T07:20:32;23.10;99.90
9193;DHT22;4631;49.296;10.560;2023-06-22T07:22:58;23.20;99.90
9193;DHT22;4631;49.296;10.560;2023-06-22T07:25:25;23.30;99.90
9193;DHT22;4631;49.296;10.560;2023-06-22T07:27:59;23.50;99.90
9193;DHT22;4631;49.296;10.560;2023-06-22T07:30:26;23.60;99.90
9193;DHT22;4631;49.296;10.560;2023-06-22T07:32:53;23.60;99.90
9193;DHT22;4631;49.296;10.560;2023-06-22T07:35:20;23.70;99.90
9193;DHT22;4631;49.296;10.560;2023-06-22T07:37:46;23.80;99.90
9193;DHT22;4631;49.296;10.560;2023-06-22T07:40:13;23.80;99.90
9193;DHT22;4631;49.296;10.560;2023-06-22T07:42:40;23.90;99.90
9193;DHT22;4631;49.296;10.560;2023-06-22T07:45:08;24.00;99.90
9193;DHT22;4631;49.296;10.560;2023-06-22T07:47:35;24.20;99.90
9193;DHT22;4631;49.296;10.560;2023-06-22T07:50:01;24.30;99.90
9193;DHT22;4631;49.296;10.560;2023-06-22T07:52:28;24.30;99.90
9193;DHT22;4631;49.296;10.560;2023-06-22T07:54:55;24.40;99.90
9193;DHT22;4631;49.296;10.560;2023-06-22T07:57:22;24.50;99.90
9193;DHT22;4631;49.296;10.560;2023-06-22T07:59:48;24.50;99.90
9193;DHT22;4631;49.296;10.560;2023-06-22T08:02:16;24.70;99.90
9193;DHT22;4631;49.296;10.560;2023-06-22T08:04:43;24.80;99.90
9193;DHT22;4631;49.296;10.560;2023-06-22T08:07:10;24.80;99.90
9193;DHT22;4631;49.296;10.560;2023-06-22T08:09:36;24.90;99.90
9193;DHT22;4631;49.296;10.560;2023-06-22T08:12:03;25.00;99.90
9193;DHT22;4631;49.296;10.560;2023-06-22T08:14:30;25.00;99.90
9193;DHT22;4631;49.296;10.560;2023-06-22T08:16:56;25.10;99.90
9193;DHT22;4631;49.296;10.560;2023-06-22T08:19:24;25.10;99.90
9193;DHT22;4631;49.296;10.560;2023-06-22T08:21:51;25.20;99.90
9193;DHT22;4631;49.296;10.560;2023-06-22T08:24:18;25.30;99.90
9193;DHT22;4631;49.296;10.560;2023-06-22T08:26:44;25.50;99.90
9193;DHT22;4631;49.296;10.560;2023-06-22T08:29:11;25.60;99.90
9193;DHT22;4631;49.296;10.560;2023-06-22T08:31:38;25.70;99.90
9193;DHT22;4631;49.296;10.560;2023-06-22T08:34:04;25.70;99.90
9193;DHT22;4631;49.296;10.560;2023-06-22T08:36:32;25.80;99.90
9193;DHT22;4631;49.296;10.560;2023-06-22T08:39:02;25.80;99.90
9193;DHT22;4631;49.296;10.560;2023-06-22T08:41:29;25.90;99.90
9193;DHT22;4631;49.296;10.560;2023-06-22T08:43:56;25.90;99.90
9193;DHT22;4631;49.296;10.560;2023-06-22T08:46:24;26.00;99.90
9193;DHT22;4631;49.296;10.560;2023-06-22T08:49:05;26.00;99.90
9193;DHT22;4631;49.296;10.560;2023-06-22T08:51:34;26.00;99.90
9193;DHT22;4631;49.296;10.560;2023-06-22T08:56:51;26.30;99.90
9193;DHT22;4631;49.296;10.560;2023-06-22T08:59:18;26.40;99.90
9193;DHT22;4631;49.296;10.560;2023-06-22T09:02:15;26.50;99.90
9193;DHT22;4631;49.296;10.560;2023-06-22T09:04:47;26.60;99.90
9193;DHT22;4631;49.296;10.560;2023-06-22T09:07:37;26.70;99.90
9193;DHT22;4631;49.296;10.560;2023-06-22T09:10:42;26.80;99.90
9193;DHT22;4631;49.296;10.560;2023-06-22T09:12:59;26.90;99.90
9193;DHT22;4631;49.296;10.560;2023-06-22T09:15:26;27.00;99.90
9193;DHT22;4631;49.296;10.560;2023-06-22T09:17:55;27.10;99.90
9193;DHT22;4631;49.296;10.560;2023-06-22T09:20:23;27.10;99.90
9193;DHT22;4631;49.296;10.560;2023-06-22T09:22:54;27.30;99.90
9193;DHT22;4631;49.296;10.560;2023-06-22T09:25:20;27.40;99.90
9193;DHT22;4631;49.296;10.560;2023-06-22T09:27:47;27.40;99.90
9193;DHT22;4631;49.296;10.560;2023-06-22T09:33:01;27.60;99.90
9193;DHT22;4631;49.296;10.560;2023-06-22T09:35:28;27.70;99.90
9193;DHT22;4631;49.296;10.560;2023-06-22T09:37:56;27.80;99.90
9193;DHT22;4631;49.296;10.560;2023-06-22T09:40:23;27.90;99.90
9193;DHT22;4631;49.296;10.560;2023-06-22T09:42:52;28.00;99.90
9193;DHT22;4631;49.296;10.560;2023-06-22T09:45:24;28.10;99.90
9193;DHT22;4631;49.296;10.560;2023-06-22T09:47:51;28.10;99.90
9193;DHT22;4631;49.296;10.560;2023-06-22T09:50:18;28.30;99.90
9193;DHT22;4631;49.296;10.560;2023-06-22T09:52:44;28.40;99.90
9193;DHT22;4631;49.296;10.560;2023-06-22T09:55:17;28.50;99.90
9193;DHT22;4631;49.296;10.560;2023-06-22T09:57:44;28.60;99.90
9193;DHT22;4631;49.296;10.560;2023-06-22T10:00:11;28.60;99.90
9193;DHT22;4631;49.296;10.560;2023-06-22T10:02:38;28.70;99.90
9193;DHT22;4631;49.296;10.560;2023-06-22T10:05:05;28.80;99.90
9193;DHT22;4631;49.296;10.560;2023-06-22T10:07:32;28.80;99.90
9193;DHT22;4631;49.296;10.560;2023-06-22T10:09:59;28.90;99.90
9193;DHT22;4631;49.296;10.560;2023-06-22T10:12:30;29.00;99.90
9193;DHT22;4631;49.296;10.560;2023-06-22T10:14:57;29.10;99.90
9193;DHT22;4631;49.296;10.560;2023-06-22T10:17:23;29.20;99.90
9193;DHT22;4631;49.296;10.560;2023-06-22T10:19:50;29.30;99.90
9193;DHT22;4631;49.296;10.560;2023-06-22T10:22:17;29.40;99.90
9193;DHT22;4631;49.296;10.560;2023-06-22T10:24:43;29.50;99.90
9193;DHT22;4631;49.296;10.560;2023-06-22T10:27:11;29.60;99.90
9193;DHT22;4631;49.296;10.560;2023-06-22T10:29:40;29.80;99.90
9193;DHT22;4631;49.296;10.560;2023-06-22T10:32:09;29.80;99.90
9193;DHT22;4631;49.296;10.560;2023-06-22T10:34:35;29.90;99.90
9193;DHT22;4631;49.296;10.560;2023-06-22T10:37:02;30.00;99.90
9193;DHT22;4631;49.296;10.560;2023-06-22T10:39:29;30.10;99.90
9193;DHT22;4631;49.296;10.560;2023-06-22T10:41:56;30.30;99.90
9193;DHT22;4631;49.296;10.560;2023-06-22T10:44:22;30.40;99.90
9193;DHT22;4631;49.296;10.560;2023-06-22T10:46:51;30.60;99.90
9193;DHT22;4631;49.296;10.560;2023-06-22T10:49:18;30.60;99.90
9193;DHT22;4631;49.296;10.560;2023-06-22T10:51:45;30.80;99.90
9193;DHT22;4631;49.296;10.560;2023-06-22T10:54:11;30.90;99.90
9193;DHT22;4631;49.296;10.560;2023-06-22T10:56:39;30.90;99.90
9193;DHT22;4631;49.296;10.560;2023-06-22T10:59:05;31.10;99.90
9193;DHT22;4631;49.296;10.560;2023-06-22T11:01:32;31.20;99.90
9193;DHT22;4631;49.296;10.560;2023-06-22T11:04:00;31.30;99.90
9193;DHT22;4631;49.296;10.560;2023-06-22T11:06:30;31.30;99.90
9193;DHT22;4631;49.296;10.560;2023-06-22T11:09:06;31.40;99.90
9193;DHT22;4631;49.296;10.560;2023-06-22T11:11:33;31.50;99.90
9193;DHT22;4631;49.296;10.560;2023-06-22T11:14:02;31.50;99.90
9193;DHT22;4631;49.296;10.560;2023-06-22T11:16:31;31.60;99.90
9193;DHT22;4631;49.296;10.560;2023-06-22T11:19:01;31.80;99.90
9193;DHT22;4631;49.296;10.560;2023-06-22T11:21:28;31.90;99.90
9193;DHT22;4631;49.296;10.560;2023-06-22T11:23:55;32.00;99.90
9193;DHT22;4631;49.296;10.560;2023-06-22T11:26:21;32.10;99.90
9193;DHT22;4631;49.296;10.560;2023-06-22T11:28:48;32.10;99.90
9193;DHT22;4631;49.296;10.560;2023-06-22T11:31:15;32.00;99.90
9193;DHT22;4631;49.296;10.560;2023-06-22T11:33:41;32.00;99.90
9193;DHT22;4631;49.296;10.560;2023-06-22T11:36:11;32.00;99.90
9193;DHT22;4631;49.296;10.560;2023-06-22T11:38:38;32.10;99.90
9193;DHT22;4631;49.296;10.560;2023-06-22T11:41:05;32.10;99.90
9193;DHT22;4631;49.296;10.560;2023-06-22T11:43:31;32.20;99.90
9193;DHT22;4631;49.296;10.560;2023-06-22T11:46:17;32.30;99.90
9193;DHT22;4631;49.296;10.560;2023-06-22T11:49:07;32.40;99.90
9193;DHT22;4631;49.296;10.560;2023-06-22T11:51:37;32.40;99.90
9193;DHT22;4631;49.296;10.560;2023-06-22T11:54:51;32.40;99.90
9193;DHT22;4631;49.296;10.560;2023-06-22T11:57:01;32.50;99.90
9193;DHT22;4631;49.296;10.560;2023-06-22T11:59:36;32.60;99.90
9193;DHT22;4631;49.296;10.560;2023-06-22T12:02:03;32.80;99.90
9193;DHT22;4631;49.296;10.560;2023-06-22T12:04:31;33.00;99.90
9193;DHT22;4631;49.296;10.560;2023-06-22T12:06:59;33.20;99.90
9193;DHT22;4631;49.296;10.560;2023-06-22T12:09:26;33.30;99.90
9193;DHT22;4631;49.296;10.560;2023-06-22T12:11:53;33.20;99.90
9193;DHT22;4631;49.296;10.560;2023-06-22T12:14:19;33.10;99.90
9193;DHT22;4631;49.296;10.560;2023-06-22T12:16:46;33.20;99.90
9193;DHT22;4631;49.296;10.560;2023-06-22T12:19:13;33.10;99.90
9193;DHT22;4631;49.296;10.560;2023-06-22T12:21:40;32.90;99.90
9193;DHT22;4631;49.296;10.560;2023-06-22T12:24:08;32.90;99.90
9193;DHT22;4631;49.296;10.560;2023-06-22T12:26:34;33.00;99.90
9193;DHT22;4631;49.296;10.560;2023-06-22T12:29:01;33.20;99.90
9193;DHT22;4631;49.296;10.560;2023-06-22T12:31:28;33.50;99.90
9193;DHT22;4631;49.296;10.560;2023-06-22T12:33:54;33.60;99.90
9193;DHT22;4631;49.296;10.560;2023-06-22T12:36:21;33.60;99.90
9193;DHT22;4631;49.296;10.560;2023-06-22T12:38:47;33.50;99.90
9193;DHT22;4631;49.296;10.560;2023-06-22T12:41:15;33.50;99.90
9193;DHT22;4631;49.296;10.560;2023-06-22T12:43:42;33.50;99.90
9193;DHT22;4631;49.296;10.560;2023-06-22T12:46:09;33.50;99.90
9193;DHT22;4631;49.296;10.560;2023-06-22T12:48:35;33.70;99.90
9193;DHT22;4631;49.296;10.560;2023-06-22T12:51:07;33.80;99.90
9193;DHT22;4631;49.296;10.560;2023-06-22T12:53:39;33.80;99.90
9193;DHT22;4631;49.296;10.560;2023-06-22T12:56:06;33.90;99.90
9193;DHT22;4631;49.296;10.560;2023-06-22T12:58:34;34.10;99.90
9193;DHT22;4631;49.296;10.560;2023-06-22T13:01:00;34.30;99.90
9193;DHT22;4631;49.296;10.560;2023-06-22T13:03:27;34.40;99.90
9193;DHT22;4631;49.296;10.560;2023-06-22T13:05:53;34.60;99.90
9193;DHT22;4631;49.296;10.560;2023-06-22T13:08:21;34.50;99.90
9193;DHT22;4631;49.296;10.560;2023-06-22T13:10:47;34.40;99.90
9193;DHT22;4631;49.296;10.560;2023-06-22T13:13:14;34.30;99.90
9193;DHT22;4631;49.296;10.560;2023-06-22T13:15:42;34.20;99.90
9193;DHT22;4631;49.296;10.560;2023-06-22T13:18:08;34.10;99.90
9193;DHT22;4631;49.296;10.560;2023-06-22T13:20:35;33.90;99.90
9193;DHT22;4631;49.296;10.560;2023-06-22T13:23:02;33.80;99.40
9193;DHT22;4631;49.296;10.560;2023-06-22T13:25:28;33.70;99.40
9193;DHT22;4631;49.296;10.560;2023-06-22T13:27:55;33.50;99.30
9193;DHT22;4631;49.296;10.560;2023-06-22T13:30:21;33.50;99.90
9193;DHT22;4631;49.296;10.560;2023-06-22T13:32:49;33.40;99.90
9193;DHT22;4631;49.296;10.560;2023-06-22T13:35:16;33.40;99.90
9193;DHT22;4631;49.296;10.560;2023-06-22T13:37:43;33.50;99.90
9193;DHT22;4631;49.296;10.560;2023-06-22T13:40:10;33.50;99.90
9193;DHT22;4631;49.296;10.560;2023-06-22T13:42:36;33.50;99.90
9193;DHT22;4631;49.296;10.560;2023-06-22T13:45:03;33.40;99.90
9193;DHT22;4631;49.296;10.560;2023-06-22T13:47:30;33.40;99.70
9193;DHT22;4631;49.296;10.560;2023-06-22T13:49:58;33.40;99.80
9193;DHT22;4631;49.296;10.560;2023-06-22T13:52:25;33.40;99.90
9193;DHT22;4631;49.296;10.560;2023-06-22T13:54:52;33.30;99.50
9193;DHT22;4631;49.296;10.560;2023-06-22T13:57:19;33.30;99.40
9193;DHT22;4631;49.296;10.560;2023-06-22T13:59:45;33.20;99.90
9193;DHT22;4631;49.296;10.560;2023-06-22T14:02:12;33.40;99.30
9193;DHT22;4631;49.296;10.560;2023-06-22T14:04:39;33.40;99.80
9193;DHT22;4631;49.296;10.560;2023-06-22T14:07:07;33.60;98.70
9193;DHT22;4631;49.296;10.560;2023-06-22T14:09:33;33.80;98.50
9193;DHT22;4631;49.296;10.560;2023-06-22T14:12:02;33.80;99.00
9193;DHT22;4631;49.296;10.560;2023-06-22T14:14:29;34.00;98.50
9193;DHT22;4631;49.296;10.560;2023-06-22T14:16:55;34.00;98.70
9193;DHT22;4631;49.296;10.560;2023-06-22T14:22:05;34.00;98.80
9193;DHT22;4631;49.296;10.560;2023-06-22T14:24:33;34.00;99.00
9193;DHT22;4631;49.296;10.560;2023-06-22T14:26:59;33.90;98.90
9193;DHT22;4631;49.296;10.560;2023-06-22T14:29:32;33.90;99.00
9193;DHT22;4631;49.296;10.560;2023-06-22T14:32:47;34.10;99.20
9193;DHT22;4631;49.296;10.560;2023-06-22T14:35:11;34.30;99.20
9193;DHT22;4631;49.296;10.560;2023-06-22T14:37:38;34.60;98.40
9193;DHT22;4631;49.296;10.560;2023-06-22T14:40:06;34.90;98.40
9193;DHT22;4631;49.296;10.560;2023-06-22T14:42:33;35.10;97.90
9193;DHT22;4631;49.296;10.560;2023-06-22T14:45:00;35.30;97.70
9193;DHT22;4631;49.296;10.560;2023-06-22T14:47:26;35.40;97.20
9193;DHT22;4631;49.296;10.560;2023-06-22T14:49:53;35.60;96.30
9193;DHT22;4631;49.296;10.560;2023-06-22T14:52:20;35.80;96.20
9193;DHT22;4631;49.296;10.560;2023-06-22T14:54:47;35.90;96.40
9193;DHT22;4631;49.296;10.560;2023-06-22T14:57:21;35.90;96.10
9193;DHT22;4631;49.296;10.560;2023-06-22T14:59:48;36.00;96.50
9193;DHT22;4631;49.296;10.560;2023-06-22T15:02:18;36.10;95.90
9193;DHT22;4631;49.296;10.560;2023-06-22T15:04:45;36.10;96.20
9193;DHT22;4631;49.296;10.560;2023-06-22T15:07:12;36.20;95.90
9193;DHT22;4631;49.296;10.560;2023-06-22T15:09:38;36.30;95.70
9193;DHT22;4631;49.296;10.560;2023-06-22T15:12:07;36.30;94.80
9193;DHT22;4631;49.296;10.560;2023-06-22T15:14:38;36.20;93.70
9193;DHT22;4631;49.296;10.560;2023-06-22T15:17:05;36.00;94.50
9193;DHT22;4631;49.296;10.560;2023-06-22T15:19:34;35.80;93.60
9193;DHT22;4631;49.296;10.560;2023-06-22T15:22:00;35.70;93.30
9193;DHT22;4631;49.296;10.560;2023-06-22T15:24:27;35.50;92.90
9193;DHT22;4631;49.296;10.560;2023-06-22T15:26:54;35.30;92.70
9193;DHT22;4631;49.296;10.560;2023-06-22T15:29:21;35.20;92.40
9193;DHT22;4631;49.296;10.560;2023-06-22T15:34:21;35.30;92.70
9193;DHT22;4631;49.296;10.560;2023-06-22T15:36:48;35.50;92.10
9193;DHT22;4631;49.296;10.560;2023-06-22T15:39:15;35.60;92.10
9193;DHT22;4631;49.296;10.560;2023-06-22T15:41:42;35.70;91.00
9193;DHT22;4631;49.296;10.560;2023-06-22T15:44:08;35.90;90.90
9193;DHT22;4631;49.296;10.560;2023-06-22T15:46:35;35.90;90.80
9193;DHT22;4631;49.296;10.560;2023-06-22T15:49:02;35.80;90.40
9193;DHT22;4631;49.296;10.560;2023-06-22T15:51:30;35.70;90.90
9193;DHT22;4631;49.296;10.560;2023-06-22T15:53:56;35.70;91.20
9193;DHT22;4631;49.296;10.560;2023-06-22T15:56:23;35.60;91.50
9193;DHT22;4631;49.296;10.560;2023-06-22T15:58:50;35.60;91.10
9193;DHT22;4631;49.296;10.560;2023-06-22T16:01:17;35.30;91.20
9193;DHT22;4631;49.296;10.560;2023-06-22T16:03:43;35.20;91.40
9193;DHT22;4631;49.296;10.560;2023-06-22T16:06:11;35.00;92.60